createdAt,value
2023-04-26T00:00:09.525Z,3.41
2023-04-26T00:02:38.178Z,3.37
2023-04-26T00:05:09.558Z,3.39
2023-04-26T00:07:39.329Z,3.37
2023-04-26T00:10:08.912Z,3.22
2023-04-26T00:12:38.100Z,3.46
2023-04-26T00:15:09.668Z,3.44
2023-04-26T00:17:38.402Z,3.45
2023-04-26T00:20:10.515Z,3.43
2023-04-26T00:22:39.036Z,3.00
2023-04-26T00:25:08.217Z,3.09
2023-04-26T00:27:36.660Z,3.47
2023-04-26T00:30:05.614Z,3.48
2023-04-26T00:32:36.537Z,3.49
2023-04-26T00:35:05.708Z,3.51
2023-04-26T00:37:34.236Z,3.49
2023-04-26T00:40:02.572Z,3.49
2023-04-26T00:42:31.343Z,3.12
2023-04-26T00:44:59.695Z,3.48
2023-04-26T00:47:30.902Z,3.47
2023-04-26T00:50:01.192Z,3.45
2023-04-26T00:52:30.170Z,3.44
2023-04-26T00:54:59.178Z,3.43
2023-04-26T00:57:27.543Z,3.30
2023-04-26T00:59:55.926Z,3.33
2023-04-26T01:02:24.441Z,3.16
2023-04-26T01:04:52.990Z,3.36
2023-04-26T01:07:23.076Z,3.16
2023-04-26T01:09:51.798Z,3.33
2023-04-26T01:12:20.858Z,3.34
2023-04-26T01:14:49.386Z,3.34
2023-04-26T01:17:17.760Z,3.32
2023-04-26T01:19:49.902Z,3.30
2023-04-26T01:22:18.272Z,3.26
2023-04-26T01:24:51.600Z,3.26
2023-04-26T01:27:20.004Z,3.21
2023-04-26T01:29:48.319Z,2.82
2023-04-26T01:32:16.636Z,2.57
2023-04-26T01:34:44.969Z,2.95
2023-04-26T01:37:13.369Z,3.06
2023-04-26T01:39:41.707Z,3.04
2023-04-26T01:42:11.887Z,3.01
2023-04-26T01:44:40.858Z,2.98
2023-04-26T01:47:09.239Z,2.91
2023-04-26T01:49:37.741Z,2.76
2023-04-26T01:52:06.490Z,2.80
2023-04-26T01:54:34.855Z,2.84
2023-04-26T01:57:03.958Z,2.81
2023-04-26T01:59:33.720Z,2.73
2023-04-26T02:02:02.182Z,2.62
2023-04-26T02:04:30.709Z,2.70
2023-04-26T02:06:59.212Z,2.67
2023-04-26T02:09:27.487Z,2.63
2023-04-26T02:11:55.817Z,2.60
2023-04-26T02:14:24.175Z,2.58
2023-04-26T02:16:53.953Z,2.54
2023-04-26T02:19:22.294Z,2.51
2023-04-26T02:21:55.836Z,2.50
2023-04-26T02:24:24.355Z,2.44
2023-04-26T02:26:53.197Z,2.22
2023-04-26T02:29:29.746Z,2.34
2023-04-26T02:32:12.077Z,2.27
2023-04-26T02:34:40.825Z,2.22
2023-04-26T02:37:09.416Z,2.17
2023-04-26T02:39:37.832Z,2.17
2023-04-26T02:42:10.798Z,2.14
2023-04-26T02:44:39.910Z,2.12
2023-04-26T02:47:09.942Z,2.03
2023-04-26T02:49:40.122Z,2.09
2023-04-26T02:52:08.400Z,1.52
2023-04-26T02:54:36.719Z,1.93
2023-04-26T02:57:06.306Z,1.94
2023-04-26T02:59:34.708Z,1.92
2023-04-26T03:02:03.092Z,1.90
2023-04-26T03:04:36.614Z,1.92
2023-04-26T03:07:06.576Z,1.31
2023-04-26T03:09:35.010Z,1.86
2023-04-26T03:12:03.485Z,1.84
2023-04-26T03:14:31.797Z,1.74
2023-04-26T03:17:00.181Z,1.82
2023-04-26T03:19:28.783Z,1.80
2023-04-26T03:21:57.607Z,1.78
2023-04-26T03:24:27.672Z,1.48
2023-04-26T03:26:55.958Z,1.69
2023-04-26T03:29:24.292Z,1.15
2023-04-26T03:31:52.632Z,1.69
2023-04-26T03:34:21.078Z,1.69
2023-04-26T03:36:49.425Z,1.68
2023-04-26T03:39:17.982Z,1.65
2023-04-26T03:41:47.849Z,1.60
2023-04-26T03:44:16.787Z,1.56
2023-04-26T03:46:45.183Z,0.95
2023-04-26T03:49:13.521Z,1.37
2023-04-26T03:51:42.081Z,1.53
2023-04-26T03:54:11.221Z,1.51
2023-04-26T03:56:40.206Z,1.51
2023-04-26T03:59:10.491Z,1.52
2023-04-26T04:01:38.854Z,1.49
2023-04-26T04:04:07.272Z,1.47
2023-04-26T04:06:35.932Z,1.37
2023-04-26T04:09:05.609Z,1.46
2023-04-26T04:11:35.037Z,1.46
2023-04-26T04:14:03.339Z,1.45
2023-04-26T04:16:33.120Z,1.36
2023-04-26T04:19:01.370Z,1.34
2023-04-26T04:21:29.650Z,1.25
2023-04-26T04:23:57.978Z,1.23
2023-04-26T04:26:26.499Z,1.21
2023-04-26T04:28:55.345Z,1.22
2023-04-26T04:31:24.291Z,1.12
2023-04-26T04:33:54.081Z,1.21
2023-04-26T04:36:23.054Z,1.22
2023-04-26T04:38:51.800Z,1.24
2023-04-26T04:41:20.695Z,1.26
2023-04-26T04:43:49.059Z,1.28
2023-04-26T04:46:17.424Z,1.29
2023-04-26T04:48:45.774Z,1.32
2023-04-26T04:51:15.559Z,1.19
2023-04-26T04:53:43.834Z,1.38
2023-04-26T04:56:12.159Z,1.42
2023-04-26T04:58:40.446Z,1.20
2023-04-26T05:01:08.870Z,1.39
2023-04-26T05:03:37.470Z,1.40
2023-04-26T05:06:07.009Z,1.63
2023-04-26T05:08:37.285Z,1.44
2023-04-26T05:11:05.636Z,1.75
2023-04-26T05:13:33.961Z,1.80
2023-04-26T05:16:02.561Z,1.84
2023-04-26T05:18:30.836Z,1.82
2023-04-26T05:20:59.747Z,1.84
2023-04-26T05:23:28.231Z,1.85
2023-04-26T05:25:58.258Z,1.87
2023-04-26T05:28:27.211Z,1.57
2023-04-26T05:30:55.798Z,1.91
2023-04-26T05:33:24.234Z,1.94
2023-04-26T05:35:54.345Z,2.06
2023-04-26T05:38:23.270Z,2.12
2023-04-26T05:40:51.983Z,1.77
2023-04-26T05:43:21.748Z,2.26
2023-04-26T05:45:53.656Z,2.38
2023-04-26T05:48:22.662Z,2.43
2023-04-26T05:50:51.347Z,2.47
2023-04-26T05:53:20.491Z,2.51
2023-04-26T05:55:49.208Z,2.61
2023-04-26T05:58:17.494Z,2.49
2023-04-26T06:00:47.932Z,2.64
2023-04-26T06:03:16.651Z,2.68
2023-04-26T17:19:57.067Z,7.39
2023-04-26T17:22:25.383Z,7.36
2023-04-26T17:24:53.707Z,7.37
2023-04-26T17:27:22.447Z,7.40
2023-04-26T17:29:51.058Z,7.25
2023-04-26T17:32:19.501Z,7.37
2023-04-26T17:34:48.342Z,7.22
2023-04-26T17:37:18.715Z,7.24
2023-04-26T17:39:47.096Z,7.21
2023-04-26T17:42:17.664Z,7.15
2023-04-26T17:44:47.354Z,7.10
2023-04-26T17:47:17.008Z,7.07
2023-04-26T17:49:46.588Z,7.02
2023-04-26T17:52:15.003Z,7.00
2023-04-26T17:54:44.742Z,6.95
2023-04-26T17:57:13.094Z,6.89
2023-04-26T17:59:41.710Z,6.75
2023-04-26T18:02:10.004Z,6.80
2023-04-26T18:04:38.679Z,6.57
2023-04-26T18:07:07.831Z,6.59
2023-04-26T18:09:36.971Z,6.54
2023-04-26T18:12:07.015Z,6.50
2023-04-26T18:14:35.418Z,6.45
2023-04-26T18:17:05.371Z,6.41
2023-04-26T18:19:33.671Z,6.33
2023-04-26T18:22:02.060Z,6.21
2023-04-26T18:24:31.126Z,6.09
2023-04-26T18:27:01.468Z,5.99
2023-04-26T18:29:32.768Z,5.77
2023-04-26T18:32:02.153Z,5.84
2023-04-26T18:34:30.517Z,5.79
2023-04-26T18:36:59.011Z,5.61
